createdAt,value
2019-02-03T00:02:20.741Z,20.60
2019-02-03T00:05:23.664Z,20.67
2019-02-03T00:08:26.897Z,21.70
2019-02-03T00:11:30.564Z,21.87
2019-02-03T00:14:33.936Z,24.70
2019-02-03T00:17:36.841Z,25.07
2019-02-03T00:20:40.390Z,21.30
2019-02-03T00:23:43.680Z,24.10
2019-02-03T00:26:47.343Z,22.77
2019-02-03T00:29:50.281Z,25.23
2019-02-03T00:32:53.207Z,23.17
2019-02-03T00:35:56.453Z,22.83
2019-02-03T00:38:59.856Z,22.17
2019-02-03T00:42:03.207Z,25.00
2019-02-03T00:45:10.135Z,23.50
2019-02-03T00:48:14.127Z,21.57
2019-02-03T00:51:17.055Z,23.97
2019-02-03T00:54:19.983Z,24.20
2019-02-03T00:57:24.756Z,23.87
2019-02-03T01:00:27.680Z,24.23
2019-02-03T01:03:30.914Z,23.30
2019-02-03T01:06:33.860Z,28.57
2019-02-03T01:09:36.835Z,25.47
2019-02-03T01:12:40.455Z,20.67
2019-02-03T01:15:43.676Z,24.97
2019-02-03T01:18:47.853Z,25.43
2019-02-03T01:21:51.092Z,25.10
2019-02-03T01:24:54.414Z,23.30
2019-02-03T01:27:58.002Z,22.57
2019-02-03T01:31:01.086Z,24.20
2019-02-03T01:34:04.024Z,22.63
2019-02-03T01:37:07.317Z,22.30
2019-02-03T01:40:14.073Z,23.00
2019-02-03T01:43:17.269Z,23.27
2019-02-03T01:46:20.552Z,24.67
2019-02-03T01:49:24.244Z,21.43
2019-02-03T01:52:27.734Z,24.47
2019-02-03T01:55:31.054Z,22.43
2019-02-03T01:58:34.352Z,23.00
2019-02-03T02:01:37.276Z,21.93
2019-02-03T02:04:41.209Z,20.93
2019-02-03T02:07:51.834Z,21.90
2019-02-03T02:10:49.625Z,20.53
2019-02-03T02:13:52.552Z,23.93
2019-02-03T02:16:56.192Z,26.40
2019-02-03T02:19:59.107Z,20.77
2019-02-03T02:23:02.364Z,24.90
2019-02-03T02:26:05.401Z,23.37
2019-02-03T02:29:08.615Z,24.07
2019-02-03T02:32:11.569Z,24.83
2019-02-03T02:35:14.491Z,22.20
2019-02-03T02:38:17.683Z,24.00
2019-02-03T02:41:20.960Z,27.23
2019-02-03T02:44:24.838Z,25.13
2019-02-03T02:47:27.803Z,29.47
2019-02-03T02:50:37.551Z,23.57
2019-02-03T02:53:40.818Z,28.87
2019-02-03T02:56:43.849Z,23.90
2019-02-03T02:59:47.429Z,27.00
2019-02-03T03:02:50.391Z,24.57
2019-02-03T03:05:53.306Z,23.30
2019-02-03T03:08:56.268Z,25.17
2019-02-03T03:11:59.728Z,23.30
2019-02-03T03:15:04.168Z,26.30
2019-02-03T03:18:07.249Z,24.27
2019-02-03T03:21:10.743Z,27.10
2019-02-03T03:24:14.018Z,22.47
2019-02-03T03:27:17.049Z,22.57
2019-02-03T03:30:23.577Z,22.20
2019-02-03T03:33:27.067Z,24.70
2019-02-03T03:36:29.991Z,25.77
2019-02-03T03:39:33.223Z,24.07
2019-02-03T03:42:36.415Z,24.83
2019-02-03T03:45:41.003Z,22.10
2019-02-03T03:48:43.899Z,21.37
2019-02-03T03:51:47.379Z,21.73
2019-02-03T03:54:50.623Z,20.03
2019-02-03T03:57:53.872Z,19.87
2019-02-03T04:00:56.793Z,23.43
2019-02-03T04:03:59.724Z,20.40
2019-02-03T04:07:02.741Z,22.80
2019-02-03T04:10:08.163Z,22.73
2019-02-03T04:13:11.061Z,22.40
2019-02-03T04:16:13.987Z,19.57
2019-02-03T04:19:17.238Z,21.73
2019-02-03T04:22:20.456Z,22.40
2019-02-03T04:25:23.687Z,21.57
2019-02-03T04:28:27.219Z,22.37
2019-02-03T04:31:30.424Z,19.70
2019-02-03T04:34:34.063Z,18.57
2019-02-03T04:37:38.198Z,21.03
2019-02-03T04:40:41.140Z,21.40
2019-02-03T04:43:44.050Z,18.63
2019-02-03T04:46:47.705Z,21.03
2019-02-03T04:49:51.173Z,19.83
2019-02-03T04:52:54.408Z,19.97
2019-02-03T04:55:58.408Z,19.03
2019-02-03T04:59:01.699Z,20.03
2019-02-03T05:02:04.921Z,20.23
2019-02-03T05:05:09.662Z,21.43
2019-02-03T05:08:12.572Z,18.20
2019-02-03T05:11:15.782Z,18.43
2019-02-03T05:14:19.109Z,18.90
2019-02-03T05:17:22.306Z,19.60
2019-02-03T05:20:26.730Z,19.40
2019-02-03T05:23:30.010Z,17.97
2019-02-03T05:26:33.550Z,20.30
2019-02-03T05:29:36.475Z,18.47
2019-02-03T05:32:39.412Z,19.17
2019-02-03T05:35:42.327Z,16.53
2019-02-03T05:38:45.255Z,20.30
2019-02-03T05:41:48.197Z,19.23
2019-02-03T05:44:51.440Z,21.53
2019-02-03T05:47:55.056Z,18.93
2019-02-03T05:50:58.330Z,21.07
2019-02-03T05:54:01.260Z,19.10
2019-02-03T05:57:05.021Z,18.67
2019-02-03T06:00:12.286Z,18.83
2019-02-03T06:03:16.447Z,20.80
2019-02-03T06:06:19.373Z,18.60
2019-02-03T06:09:22.310Z,22.63
2019-02-03T06:12:25.672Z,17.47
2019-02-03T06:15:28.603Z,19.03
2019-02-03T06:18:31.894Z,21.23
2019-02-03T06:21:35.536Z,18.50
2019-02-03T06:24:38.439Z,18.57
2019-02-03T06:27:41.906Z,18.20
2019-02-03T06:31:09.140Z,18.40
2019-02-03T06:34:12.421Z,21.60
2019-02-03T06:37:15.365Z,18.87
2019-02-03T06:40:18.596Z,17.67
2019-02-03T06:43:22.056Z,16.67
2019-02-03T06:46:43.267Z,20.17
2019-02-03T06:49:47.267Z,18.60
2019-02-03T06:52:50.180Z,17.87
2019-02-03T06:55:53.362Z,16.83
2019-02-03T06:58:57.063Z,16.97
2019-02-03T07:02:00.616Z,17.17
2019-02-03T07:05:04.726Z,17.17
2019-02-03T07:08:07.908Z,18.33
2019-02-03T07:11:10.930Z,15.43
2019-02-03T07:14:13.896Z,16.30
2019-02-03T07:17:17.407Z,17.60
2019-02-03T07:20:20.335Z,16.43
2019-02-03T07:23:23.689Z,15.27
2019-02-03T07:26:26.608Z,16.27
2019-02-03T07:29:29.571Z,17.23
2019-02-03T07:32:32.802Z,15.70
2019-02-03T07:35:36.051Z,14.40
2019-02-03T07:38:41.043Z,13.90
2019-02-03T07:41:44.915Z,13.13
2019-02-03T07:44:48.593Z,13.43
2019-02-03T07:47:51.809Z,12.70
2019-02-03T07:50:55.081Z,13.07
2019-02-03T07:54:08.056Z,10.87
2019-02-03T07:57:03.202Z,13.60
2019-02-03T08:00:06.560Z,13.90
2019-02-03T08:03:10.232Z,11.43
2019-02-03T08:06:13.883Z,13.40
2019-02-03T08:09:16.831Z,13.43
2019-02-03T08:12:20.136Z,14.00
2019-02-03T08:15:23.080Z,13.40
2019-02-03T08:18:26.303Z,10.50
2019-02-03T08:21:30.355Z,11.90
2019-02-03T08:24:33.660Z,12.17
2019-02-03T08:27:36.596Z,11.63
2019-02-03T08:30:40.226Z,9.90
2019-02-03T08:33:43.427Z,11.70
2019-02-03T08:36:47.007Z,10.73
2019-02-03T08:39:50.220Z,11.83
2019-02-03T08:42:55.788Z,9.37
2019-02-03T08:45:58.329Z,10.70
2019-02-03T08:49:01.497Z,9.33
2019-02-03T08:52:04.795Z,9.00
2019-02-03T08:55:08.804Z,9.10
2019-02-03T08:58:12.030Z,9.10
2019-02-03T09:01:15.889Z,10.17
2019-02-03T09:04:19.305Z,12.23
2019-02-03T09:07:22.885Z,6.67
2019-02-03T09:10:25.886Z,7.70
2019-02-03T09:13:28.814Z,7.50
2019-02-03T09:16:31.749Z,8.33
2019-02-03T09:19:34.686Z,8.20
2019-02-03T09:22:40.034Z,8.40
2019-02-03T09:25:42.726Z,7.10
2019-02-03T09:28:45.983Z,8.73
2019-02-03T09:31:49.040Z,6.50
2019-02-03T09:34:52.287Z,7.87
2019-02-03T09:37:56.304Z,5.60
2019-02-03T09:41:00.485Z,6.73
2019-02-03T09:44:03.988Z,6.63
2019-02-03T09:47:08.635Z,5.80
2019-02-03T09:50:18.377Z,6.87
2019-02-03T09:53:21.299Z,5.03
2019-02-03T09:56:25.086Z,7.13
2019-02-03T09:59:28.352Z,6.30
2019-02-03T10:02:31.737Z,5.20
2019-02-03T10:05:37.323Z,5.60
2019-02-03T10:08:41.192Z,5.37
2019-02-03T10:11:44.154Z,4.67
2019-02-03T10:14:47.772Z,4.93
2019-02-03T10:17:51.074Z,4.23
2019-02-03T10:20:54.318Z,5.87
2019-02-03T10:23:57.235Z,4.87
2019-02-03T10:27:00.149Z,3.93
2019-02-03T10:30:04.416Z,4.20
2019-02-03T10:33:08.347Z,5.03
2019-02-03T10:36:11.357Z,5.00
2019-02-03T10:39:14.688Z,3.90
2019-02-03T10:42:17.919Z,3.97
2019-02-03T10:45:22.890Z,5.40
2019-02-03T10:48:26.104Z,3.37
2019-02-03T10:51:29.402Z,3.37
2019-02-03T10:54:32.616Z,3.40
2019-02-03T10:57:36.049Z,2.93
2019-02-03T11:00:40.133Z,3.70
2019-02-03T11:03:43.735Z,3.20
2019-02-03T11:06:47.141Z,3.17
2019-02-03T11:09:59.118Z,2.53
2019-02-03T11:13:02.491Z,2.23
2019-02-03T11:16:07.304Z,3.20
2019-02-03T11:19:10.351Z,2.20
2019-02-03T11:22:13.586Z,2.47
2019-02-03T11:25:18.114Z,2.03
2019-02-03T11:28:21.348Z,3.00
2019-02-03T11:31:24.979Z,2.43
2019-02-03T11:34:27.896Z,2.63
2019-02-03T11:37:30.831Z,2.23
2019-02-03T11:40:42.964Z,1.73
2019-02-03T11:43:45.902Z,1.80
2019-02-03T11:46:48.839Z,2.07
2019-02-03T11:49:52.340Z,2.57
2019-02-03T11:52:55.402Z,2.10
2019-02-03T11:55:58.693Z,2.23
2019-02-03T11:59:02.028Z,1.90
2019-02-03T12:02:05.560Z,2.80
2019-02-03T12:05:09.112Z,2.87
2019-02-03T12:08:12.452Z,2.07
2019-02-03T12:11:15.699Z,2.23
2019-02-03T12:14:18.911Z,1.90
2019-02-03T12:17:22.267Z,2.30
2019-02-03T12:20:25.281Z,2.63
2019-02-03T12:23:28.577Z,2.20
2019-02-03T12:26:32.674Z,6.27
2019-02-03T12:29:36.782Z,2.20
2019-02-03T12:32:39.946Z,2.20
2019-02-03T12:35:42.873Z,1.70
2019-02-03T12:38:45.809Z,2.23
2019-02-03T12:41:49.022Z,3.03
2019-02-03T12:44:51.951Z,3.47
2019-02-03T12:47:54.955Z,2.10
2019-02-03T12:50:58.531Z,1.50
2019-02-03T12:54:01.856Z,1.90
2019-02-03T12:57:06.168Z,1.90
2019-02-03T13:00:18.945Z,2.63
2019-02-03T13:03:25.118Z,2.60
2019-02-03T13:06:26.960Z,2.40
2019-02-03T13:09:29.899Z,2.23
2019-02-03T13:12:33.189Z,2.10
2019-02-03T13:15:49.100Z,2.20
2019-02-03T13:18:52.376Z,2.17
2019-02-03T13:21:58.414Z,2.00
2019-02-03T13:25:00.845Z,2.00
2019-02-03T13:28:05.226Z,2.53
2019-02-03T13:31:09.127Z,2.20
2019-02-03T13:34:12.519Z,3.33
2019-02-03T13:37:15.421Z,2.23
2019-02-03T13:40:18.923Z,1.30
2019-02-03T13:43:22.184Z,2.60
2019-02-03T13:46:25.390Z,1.80
2019-02-03T13:49:28.308Z,2.50
2019-02-03T13:52:31.238Z,1.80
2019-02-03T13:55:34.487Z,1.90
2019-02-03T13:58:37.687Z,2.10
2019-02-03T14:01:40.617Z,1.60
2019-02-03T14:04:43.571Z,2.30
2019-02-03T14:07:46.773Z,2.90
2019-02-03T14:10:50.012Z,1.97
2019-02-03T14:13:53.159Z,2.00
2019-02-03T14:16:56.490Z,2.70
2019-02-03T14:19:59.821Z,1.90
2019-02-03T14:23:03.608Z,1.70
2019-02-03T14:26:06.839Z,2.10
2019-02-03T14:29:09.780Z,2.43
2019-02-03T14:32:12.684Z,1.90
2019-02-03T14:35:15.930Z,2.70
2019-02-03T14:38:18.837Z,1.93
2019-02-03T14:41:21.764Z,1.60
2019-02-03T14:44:25.048Z,1.90
2019-02-03T14:47:28.334Z,2.30
2019-02-03T14:50:31.949Z,1.70
2019-02-03T14:53:35.546Z,2.13
2019-02-03T14:56:38.472Z,1.67
2019-02-03T14:59:41.663Z,2.80
2019-02-03T15:02:44.917Z,2.80
2019-02-03T15:05:48.226Z,2.40
2019-02-03T15:08:51.410Z,2.50
2019-02-03T15:11:54.720Z,2.30
2019-02-03T15:14:57.634Z,2.00
2019-02-03T15:18:00.599Z,2.20
2019-02-03T15:21:04.592Z,2.93
2019-02-03T15:24:15.993Z,2.57
2019-02-03T15:27:14.072Z,2.07
2019-02-03T15:30:21.347Z,2.90
2019-02-03T15:33:25.041Z,2.50
2019-02-03T15:36:27.989Z,2.10
2019-02-03T15:39:30.898Z,2.10
2019-02-03T15:42:34.109Z,2.30
2019-02-03T15:45:37.332Z,3.87
2019-02-03T15:48:40.889Z,79.80
2019-02-03T15:51:44.210Z,9.37
2019-02-03T15:54:47.510Z,3.20
2019-02-03T15:57:51.742Z,4.57
2019-02-03T16:00:54.997Z,4.73
2019-02-03T16:03:58.308Z,4.80
2019-02-03T16:07:01.533Z,3.00
2019-02-03T16:10:06.039Z,3.77
2019-02-03T16:13:09.836Z,8.70
2019-02-03T16:16:13.166Z,4.40
2019-02-03T16:19:16.406Z,4.00
2019-02-03T16:22:19.344Z,3.17
2019-02-03T16:25:22.927Z,6.30
2019-02-03T16:28:25.875Z,3.37
2019-02-03T16:31:28.805Z,4.17
2019-02-03T16:34:32.160Z,4.77
2019-02-03T16:37:35.211Z,4.43
2019-02-03T16:40:38.440Z,4.30
2019-02-03T16:43:48.718Z,5.60
2019-02-03T16:46:46.503Z,3.47
2019-02-03T16:49:49.464Z,2.70
2019-02-03T16:52:53.295Z,3.33
2019-02-03T16:55:56.208Z,3.80
2019-02-03T16:58:59.523Z,5.07
2019-02-03T17:02:02.563Z,5.10
2019-02-03T17:05:09.961Z,4.60
2019-02-03T17:08:14.132Z,4.83
2019-02-03T17:11:17.372Z,4.73
2019-02-03T17:14:20.345Z,8.13
2019-02-03T17:17:24.107Z,9.87
2019-02-03T17:20:27.293Z,10.90
2019-02-03T17:23:32.083Z,6.43
2019-02-03T17:26:35.297Z,7.70
2019-02-03T17:29:38.557Z,4.60
2019-02-03T17:32:41.468Z,7.77
2019-02-03T17:35:53.894Z,5.90
2019-02-03T17:38:50.687Z,6.50
2019-02-03T17:41:53.735Z,8.13
2019-02-03T17:44:56.771Z,8.17
2019-02-03T17:47:59.797Z,4.33
2019-02-03T17:51:02.875Z,3.10
2019-02-03T17:54:06.109Z,2.67
2019-02-03T17:57:09.491Z,3.43
2019-02-03T18:00:17.629Z,3.57
2019-02-03T18:03:21.753Z,2.10
2019-02-03T18:06:25.209Z,2.20
2019-02-03T18:09:28.529Z,2.60
2019-02-03T18:12:31.806Z,3.07
2019-02-03T18:15:34.756Z,3.10
2019-02-03T18:18:37.753Z,2.83
2019-02-03T18:21:40.684Z,2.67
2019-02-03T18:24:43.689Z,2.53
2019-02-03T18:27:47.032Z,2.77
2019-02-03T18:30:49.964Z,3.20
2019-02-03T18:33:53.036Z,2.63
2019-02-03T18:36:56.237Z,3.33
2019-02-03T18:39:59.810Z,2.77
2019-02-03T18:43:03.375Z,3.80
2019-02-03T18:46:06.506Z,11.37
2019-02-03T18:49:09.540Z,4.30
2019-02-03T18:52:12.566Z,2.67
2019-02-03T18:55:18.954Z,3.37
2019-02-03T18:58:21.933Z,3.40
2019-02-03T19:01:25.313Z,2.60
2019-02-03T19:04:28.532Z,2.87
2019-02-03T19:07:31.939Z,2.97
2019-02-03T19:10:35.355Z,2.60
2019-02-03T19:13:38.392Z,3.40
2019-02-03T19:16:41.345Z,2.77
2019-02-03T19:19:44.581Z,2.60
2019-02-03T19:22:47.987Z,4.17
2019-02-03T19:25:51.216Z,3.83
2019-02-03T19:28:54.149Z,3.30
2019-02-03T19:31:57.383Z,3.20
2019-02-03T19:35:00.716Z,4.00
2019-02-03T19:38:06.782Z,3.30
2019-02-03T19:41:09.629Z,3.83
2019-02-03T19:44:12.577Z,3.80
2019-02-03T19:47:15.801Z,3.43
2019-02-03T19:50:25.732Z,3.57
2019-02-03T19:53:28.977Z,3.27
2019-02-03T19:56:31.997Z,4.30
2019-02-03T19:59:46.281Z,3.33
2019-02-03T20:02:40.467Z,3.63
2019-02-03T20:05:43.808Z,3.80
2019-02-03T20:08:47.089Z,3.40
2019-02-03T20:11:50.041Z,2.97
2019-02-03T20:14:53.356Z,2.80
2019-02-03T20:17:58.091Z,3.17
2019-02-03T20:21:01.894Z,2.87
2019-02-03T20:24:05.488Z,3.27
2019-02-03T20:27:09.096Z,2.93
2019-02-03T20:30:16.159Z,2.47
2019-02-03T20:33:19.105Z,3.00
2019-02-03T20:36:22.250Z,3.10
2019-02-03T20:39:25.864Z,3.50
2019-02-03T20:42:29.207Z,3.10
2019-02-03T20:45:36.033Z,3.70
2019-02-03T20:48:38.312Z,2.77
2019-02-03T20:51:41.634Z,5.03
2019-02-03T20:54:44.537Z,3.90
2019-02-03T20:57:47.494Z,3.80
2019-02-03T21:00:51.464Z,3.30
2019-02-03T21:03:54.397Z,3.10
2019-02-03T21:06:57.336Z,3.93
2019-02-03T21:10:00.565Z,2.67
2019-02-03T21:13:11.059Z,2.40
2019-02-03T21:16:09.693Z,2.90
2019-02-03T21:19:12.656Z,3.07
2019-02-03T21:22:15.603Z,2.80
2019-02-03T21:25:19.836Z,3.50
2019-02-03T21:28:23.064Z,3.60
2019-02-03T21:31:26.326Z,3.40
2019-02-03T21:34:29.630Z,3.20
2019-02-03T21:37:32.863Z,21.30
2019-02-03T21:40:36.194Z,3.83
2019-02-03T21:43:39.135Z,4.47
2019-02-03T21:46:42.108Z,3.40
2019-02-03T21:49:45.716Z,3.53
2019-02-03T21:52:48.696Z,4.00
2019-02-03T21:55:51.629Z,4.20
2019-02-03T21:58:54.341Z,4.00
2019-02-03T22:01:57.300Z,4.50
2019-02-03T22:05:00.216Z,4.60
2019-02-03T22:08:04.001Z,3.83
2019-02-03T22:11:07.901Z,4.53
2019-02-03T22:14:11.197Z,4.53
2019-02-03T22:17:14.155Z,4.17
2019-02-03T22:20:19.964Z,4.30
2019-02-03T22:23:23.294Z,3.30
2019-02-03T22:26:26.594Z,3.40
2019-02-03T22:29:30.163Z,4.23
2019-02-03T22:32:33.190Z,4.60
2019-02-03T22:35:36.787Z,4.93
2019-02-03T22:38:40.254Z,3.57
2019-02-03T22:41:43.583Z,4.70
2019-02-03T22:44:46.654Z,4.30
2019-02-03T22:47:49.985Z,3.97
2019-02-03T22:50:53.340Z,3.63
2019-02-03T22:53:56.250Z,4.00
2019-02-03T22:56:59.692Z,4.33
2019-02-03T23:00:11.746Z,4.03
2019-02-03T23:03:15.568Z,3.80
2019-02-03T23:06:18.525Z,3.60
2019-02-03T23:09:23.393Z,4.47
2019-02-03T23:12:26.830Z,4.40
2019-02-03T23:15:30.131Z,3.60
2019-02-03T23:18:33.072Z,3.13
2019-02-03T23:21:37.324Z,3.07
2019-02-03T23:24:40.821Z,4.23
2019-02-03T23:27:44.016Z,2.80
2019-02-03T23:30:47.255Z,5.20
2019-02-03T23:33:51.251Z,4.23
2019-02-03T23:36:54.277Z,3.97
2019-02-03T23:39:57.512Z,3.60
2019-02-03T23:43:00.801Z,3.20
2019-02-03T23:46:04.123Z,5.43
2019-02-03T23:49:07.389Z,4.83
2019-02-03T23:52:10.597Z,3.97
2019-02-03T23:55:13.927Z,3.90
2019-02-03T23:58:17.415Z,4.67
